sensor_id;sensor_type;location;lat;lon;timestamp;P1;durP1;ratioP1;P2;durP2;ratioP2
30149;SDS011;16962;48.646;9.026;2023-06-22T00:00:11;20.40;;;13.23;;
30149;SDS011;16962;48.646;9.026;2023-06-22T00:03:01;16.63;;;12.55;;
30149;SDS011;16962;48.646;9.026;2023-06-22T00:05:52;18.75;;;14.07;;
30149;SDS011;16962;48.646;9.026;2023-06-22T00:08:40;20.10;;;14.82;;
30149;SDS011;16962;48.646;9.026;2023-06-22T00:11:27;18.95;;;14.50;;
30149;SDS011;16962;48.646;9.026;2023-06-22T00:14:22;20.38;;;15.25;;
30149;SDS011;16962;48.646;9.026;2023-06-22T00:17:12;20.45;;;14.35;;
30149;SDS011;16962;48.646;9.026;2023-06-22T00:19:59;21.85;;;14.52;;
30149;SDS011;16962;48.646;9.026;2023-06-22T00:22:49;21.70;;;14.27;;
30149;SDS011;16962;48.646;9.026;2023-06-22T00:25:39;17.80;;;14.63;;
30149;SDS011;16962;48.646;9.026;2023-06-22T00:28:28;20.75;;;15.18;;
30149;SDS011;16962;48.646;9.026;2023-06-22T00:31:24;21.08;;;15.40;;
30149;SDS011;16962;48.646;9.026;2023-06-22T00:34:11;21.27;;;15.50;;
30149;SDS011;16962;48.646;9.026;2023-06-22T00:37:01;25.10;;;14.80;;
30149;SDS011;16962;48.646;9.026;2023-06-22T00:39:54;18.20;;;14.18;;
30149;SDS011;16962;48.646;9.026;2023-06-22T00:42:44;29.63;;;15.32;;
30149;SDS011;16962;48.646;9.026;2023-06-22T00:45:31;20.10;;;14.98;;
30149;SDS011;16962;48.646;9.026;2023-06-22T00:48:18;18.95;;;14.32;;
30149;SDS011;16962;48.646;9.026;2023-06-22T00:51:06;20.45;;;15.65;;
30149;SDS011;16962;48.646;9.026;2023-06-22T00:54:02;21.40;;;15.18;;
30149;SDS011;16962;48.646;9.026;2023-06-22T00:56:53;17.90;;;14.50;;
30149;SDS011;16962;48.646;9.026;2023-06-22T00:59:46;20.10;;;14.85;;
30149;SDS011;16962;48.646;9.026;2023-06-22T01:02:37;21.73;;;13.60;;
30149;SDS011;16962;48.646;9.026;2023-06-22T01:05:28;20.98;;;15.10;;
30149;SDS011;16962;48.646;9.026;2023-06-22T01:08:22;21.80;;;16.30;;
30149;SDS011;16962;48.646;9.026;2023-06-22T01:17:08;18.90;;;15.77;;
30149;SDS011;16962;48.646;9.026;2023-06-22T01:19:59;22.73;;;15.80;;
30149;SDS011;16962;48.646;9.026;2023-06-22T01:23:02;22.83;;;16.50;;
30149;SDS011;16962;48.646;9.026;2023-06-22T01:28:50;24.63;;;16.23;;
30149;SDS011;16962;48.646;9.026;2023-06-22T01:31:39;22.05;;;16.33;;
30149;SDS011;16962;48.646;9.026;2023-06-22T01:34:31;23.27;;;15.52;;
30149;SDS011;16962;48.646;9.026;2023-06-22T01:37:21;22.25;;;14.70;;
30149;SDS011;16962;48.646;9.026;2023-06-22T01:40:11;22.77;;;15.93;;
30149;SDS011;16962;48.646;9.026;2023-06-22T01:43:03;26.58;;;15.93;;
30149;SDS011;16962;48.646;9.026;2023-06-22T01:45:57;20.33;;;15.13;;
30149;SDS011;16962;48.646;9.026;2023-06-22T01:48:46;17.95;;;14.27;;
30149;SDS011;16962;48.646;9.026;2023-06-22T01:51:37;20.75;;;14.45;;
30149;SDS011;16962;48.646;9.026;2023-06-22T01:54:25;23.23;;;16.13;;
30149;SDS011;16962;48.646;9.026;2023-06-22T01:57:12;22.27;;;16.00;;
30149;SDS011;16962;48.646;9.026;2023-06-22T02:00:01;24.23;;;16.50;;
30149;SDS011;16962;48.646;9.026;2023-06-22T02:02:56;19.13;;;14.32;;
30149;SDS011;16962;48.646;9.026;2023-06-22T02:05:56;21.92;;;15.77;;
30149;SDS011;16962;48.646;9.026;2023-06-22T02:08:53;26.63;;;17.20;;
30149;SDS011;16962;48.646;9.026;2023-06-22T02:11:45;20.95;;;16.58;;
30149;SDS011;16962;48.646;9.026;2023-06-22T02:14:35;26.83;;;15.15;;
30149;SDS011;16962;48.646;9.026;2023-06-22T02:17:25;22.08;;;16.08;;
30149;SDS011;16962;48.646;9.026;2023-06-22T02:20:16;23.98;;;16.60;;
30149;SDS011;16962;48.646;9.026;2023-06-22T02:23:04;22.20;;;17.08;;
30149;SDS011;16962;48.646;9.026;2023-06-22T02:25:52;23.13;;;15.85;;
30149;SDS011;16962;48.646;9.026;2023-06-22T02:28:41;23.08;;;16.13;;
30149;SDS011;16962;48.646;9.026;2023-06-22T02:31:29;24.65;;;17.20;;
30149;SDS011;16962;48.646;9.026;2023-06-22T02:34:17;22.70;;;16.35;;
30149;SDS011;16962;48.646;9.026;2023-06-22T02:37:05;21.50;;;15.27;;
30149;SDS011;16962;48.646;9.026;2023-06-22T02:39:52;27.27;;;14.40;;
30149;SDS011;16962;48.646;9.026;2023-06-22T02:42:39;26.05;;;14.30;;
30149;SDS011;16962;48.646;9.026;2023-06-22T02:45:27;17.40;;;13.50;;
30149;SDS011;16962;48.646;9.026;2023-06-22T02:48:14;23.35;;;15.60;;
30149;SDS011;16962;48.646;9.026;2023-06-22T02:51:02;19.10;;;15.88;;
30149;SDS011;16962;48.646;9.026;2023-06-22T02:53:49;22.02;;;16.60;;
30149;SDS011;16962;48.646;9.026;2023-06-22T02:56:38;22.05;;;15.27;;
30149;SDS011;16962;48.646;9.026;2023-06-22T02:59:27;22.50;;;15.27;;
30149;SDS011;16962;48.646;9.026;2023-06-22T03:02:14;24.95;;;15.10;;
30149;SDS011;16962;48.646;9.026;2023-06-22T03:05:02;22.27;;;15.75;;
30149;SDS011;16962;48.646;9.026;2023-06-22T03:07:50;22.48;;;15.00;;
30149;SDS011;16962;48.646;9.026;2023-06-22T03:10:38;22.88;;;15.10;;
30149;SDS011;16962;48.646;9.026;2023-06-22T03:13:27;22.13;;;14.88;;
30149;SDS011;16962;48.646;9.026;2023-06-22T03:16:17;22.95;;;15.48;;
30149;SDS011;16962;48.646;9.026;2023-06-22T03:19:04;21.83;;;14.63;;
30149;SDS011;16962;48.646;9.026;2023-06-22T03:21:52;26.08;;;14.70;;
30149;SDS011;16962;48.646;9.026;2023-06-22T03:24:39;21.08;;;15.27;;
30149;SDS011;16962;48.646;9.026;2023-06-22T03:27:26;24.27;;;15.70;;
30149;SDS011;16962;48.646;9.026;2023-06-22T03:30:14;21.38;;;15.57;;
30149;SDS011;16962;48.646;9.026;2023-06-22T03:33:01;20.25;;;15.55;;
30149;SDS011;16962;48.646;9.026;2023-06-22T03:35:49;23.10;;;15.90;;
30149;SDS011;16962;48.646;9.026;2023-06-22T03:38:36;23.88;;;16.90;;
30149;SDS011;16962;48.646;9.026;2023-06-22T03:41:27;29.10;;;17.65;;
30149;SDS011;16962;48.646;9.026;2023-06-22T03:44:15;23.73;;;16.00;;
30149;SDS011;16962;48.646;9.026;2023-06-22T03:47:05;23.55;;;16.77;;
30149;SDS011;16962;48.646;9.026;2023-06-22T03:49:55;24.00;;;16.73;;
30149;SDS011;16962;48.646;9.026;2023-06-22T03:52:43;25.77;;;17.30;;
30149;SDS011;16962;48.646;9.026;2023-06-22T03:55:31;23.40;;;16.65;;
30149;SDS011;16962;48.646;9.026;2023-06-22T03:58:20;21.63;;;16.17;;
30149;SDS011;16962;48.646;9.026;2023-06-22T04:07:29;25.00;;;17.23;;
30149;SDS011;16962;48.646;9.026;2023-06-22T04:10:19;26.65;;;17.83;;
30149;SDS011;16962;48.646;9.026;2023-06-22T04:13:06;26.85;;;16.80;;
30149;SDS011;16962;48.646;9.026;2023-06-22T04:15:56;20.05;;;16.05;;
30149;SDS011;16962;48.646;9.026;2023-06-22T04:18:43;22.38;;;16.70;;
30149;SDS011;16962;48.646;9.026;2023-06-22T04:21:31;24.50;;;15.13;;
30149;SDS011;16962;48.646;9.026;2023-06-22T04:24:18;18.67;;;14.55;;
30149;SDS011;16962;48.646;9.026;2023-06-22T04:31:16;20.95;;;15.38;;
30149;SDS011;16962;48.646;9.026;2023-06-22T04:34:06;20.90;;;14.93;;
30149;SDS011;16962;48.646;9.026;2023-06-22T04:36:55;20.38;;;14.77;;
30149;SDS011;16962;48.646;9.026;2023-06-22T04:39:42;19.70;;;13.98;;
30149;SDS011;16962;48.646;9.026;2023-06-22T04:42:30;21.63;;;14.07;;
30149;SDS011;16962;48.646;9.026;2023-06-22T04:45:19;20.73;;;13.70;;
30149;SDS011;16962;48.646;9.026;2023-06-22T04:48:07;17.10;;;13.27;;
30149;SDS011;16962;48.646;9.026;2023-06-22T04:51:03;18.42;;;13.63;;
30149;SDS011;16962;48.646;9.026;2023-06-22T04:53:51;19.50;;;14.13;;
30149;SDS011;16962;48.646;9.026;2023-06-22T04:59:23;17.25;;;13.05;;
30149;SDS011;16962;48.646;9.026;2023-06-22T05:02:16;18.45;;;12.93;;
30149;SDS011;16962;48.646;9.026;2023-06-22T05:05:03;18.52;;;12.93;;
30149;SDS011;16962;48.646;9.026;2023-06-22T05:07:56;16.25;;;12.43;;
30149;SDS011;16962;48.646;9.026;2023-06-22T05:10:50;17.00;;;12.50;;
30149;SDS011;16962;48.646;9.026;2023-06-22T05:13:51;19.27;;;12.93;;
30149;SDS011;16962;48.646;9.026;2023-06-22T05:16:40;14.73;;;11.30;;
30149;SDS011;16962;48.646;9.026;2023-06-22T05:19:40;14.20;;;10.85;;
30149;SDS011;16962;48.646;9.026;2023-06-22T05:22:35;18.98;;;11.65;;
30149;SDS011;16962;48.646;9.026;2023-06-22T05:25:25;20.13;;;11.10;;
30149;SDS011;16962;48.646;9.026;2023-06-22T05:28:13;14.85;;;10.73;;
30149;SDS011;16962;48.646;9.026;2023-06-22T05:31:00;11.68;;;10.00;;
30149;SDS011;16962;48.646;9.026;2023-06-22T05:33:48;17.52;;;9.70;;
30149;SDS011;16962;48.646;9.026;2023-06-22T05:36:41;14.25;;;10.05;;
30149;SDS011;16962;48.646;9.026;2023-06-22T05:39:33;13.95;;;9.77;;
30149;SDS011;16962;48.646;9.026;2023-06-22T05:42:20;17.98;;;10.07;;
30149;SDS011;16962;48.646;9.026;2023-06-22T05:45:07;17.98;;;9.82;;
30149;SDS011;16962;48.646;9.026;2023-06-22T05:47:58;11.15;;;9.88;;
30149;SDS011;16962;48.646;9.026;2023-06-22T05:50:46;16.48;;;10.30;;
30149;SDS011;16962;48.646;9.026;2023-06-22T05:53:38;16.83;;;8.77;;
30149;SDS011;16962;48.646;9.026;2023-06-22T05:56:27;12.45;;;9.35;;
30149;SDS011;16962;48.646;9.026;2023-06-22T05:59:15;17.02;;;9.80;;
30149;SDS011;16962;48.646;9.026;2023-06-22T06:02:02;10.80;;;8.52;;
30149;SDS011;16962;48.646;9.026;2023-06-22T06:04:50;13.82;;;8.52;;
30149;SDS011;16962;48.646;9.026;2023-06-22T06:07:42;15.57;;;8.43;;
30149;SDS011;16962;48.646;9.026;2023-06-22T06:10:30;15.70;;;8.15;;
30149;SDS011;16962;48.646;9.026;2023-06-22T06:13:22;9.50;;;8.10;;
30149;SDS011;16962;48.646;9.026;2023-06-22T06:16:20;14.15;;;8.30;;
30149;SDS011;16962;48.646;9.026;2023-06-22T06:19:12;11.98;;;8.65;;
30149;SDS011;16962;48.646;9.026;2023-06-22T06:24:59;14.05;;;8.00;;
30149;SDS011;16962;48.646;9.026;2023-06-22T06:27:51;12.50;;;7.63;;
30149;SDS011;16962;48.646;9.026;2023-06-22T06:30:43;14.65;;;8.73;;
30149;SDS011;16962;48.646;9.026;2023-06-22T06:33:30;12.02;;;6.88;;
30149;SDS011;16962;48.646;9.026;2023-06-22T06:36:21;15.10;;;7.70;;
30149;SDS011;16962;48.646;9.026;2023-06-22T06:39:09;13.45;;;6.47;;
30149;SDS011;16962;48.646;9.026;2023-06-22T06:42:19;11.38;;;6.95;;
30149;SDS011;16962;48.646;9.026;2023-06-22T06:48:06;12.15;;;6.45;;
30149;SDS011;16962;48.646;9.026;2023-06-22T06:50:54;10.27;;;6.40;;
30149;SDS011;16962;48.646;9.026;2023-06-22T06:53:41;11.23;;;6.60;;
30149;SDS011;16962;48.646;9.026;2023-06-22T06:56:28;10.75;;;5.95;;
30149;SDS011;16962;48.646;9.026;2023-06-22T06:59:19;11.15;;;6.18;;
30149;SDS011;16962;48.646;9.026;2023-06-22T07:02:24;10.40;;;6.25;;
30149;SDS011;16962;48.646;9.026;2023-06-22T07:05:14;15.25;;;6.70;;
30149;SDS011;16962;48.646;9.026;2023-06-22T07:08:04;10.52;;;5.68;;
30149;SDS011;16962;48.646;9.026;2023-06-22T07:10:52;12.52;;;5.85;;
30149;SDS011;16962;48.646;9.026;2023-06-22T07:13:42;10.48;;;5.40;;
30149;SDS011;16962;48.646;9.026;2023-06-22T07:16:40;9.05;;;5.07;;
30149;SDS011;16962;48.646;9.026;2023-06-22T07:19:29;9.93;;;5.75;;
30149;SDS011;16962;48.646;9.026;2023-06-22T07:22:19;9.60;;;5.60;;
30149;SDS011;16962;48.646;9.026;2023-06-22T07:25:09;9.82;;;5.35;;
30149;SDS011;16962;48.646;9.026;2023-06-22T07:28:26;8.80;;;4.75;;
30149;SDS011;16962;48.646;9.026;2023-06-22T07:31:24;11.55;;;5.95;;
30149;SDS011;16962;48.646;9.026;2023-06-22T07:34:19;12.80;;;5.45;;
30149;SDS011;16962;48.646;9.026;2023-06-22T07:37:09;10.07;;;5.75;;
30149;SDS011;16962;48.646;9.026;2023-06-22T07:39:56;12.43;;;5.53;;
30149;SDS011;16962;48.646;9.026;2023-06-22T07:42:46;13.15;;;5.43;;
30149;SDS011;16962;48.646;9.026;2023-06-22T07:45:38;8.85;;;5.00;;
30149;SDS011;16962;48.646;9.026;2023-06-22T07:48:27;11.32;;;5.22;;
30149;SDS011;16962;48.646;9.026;2023-06-22T07:51:14;17.17;;;5.97;;
30149;SDS011;16962;48.646;9.026;2023-06-22T07:54:01;11.80;;;5.40;;
30149;SDS011;16962;48.646;9.026;2023-06-22T07:56:49;11.18;;;5.93;;
30149;SDS011;16962;48.646;9.026;2023-06-22T07:59:39;14.38;;;5.75;;
30149;SDS011;16962;48.646;9.026;2023-06-22T08:02:26;9.90;;;6.00;;
30149;SDS011;16962;48.646;9.026;2023-06-22T08:05:23;8.38;;;5.57;;
30149;SDS011;16962;48.646;9.026;2023-06-22T08:08:10;10.27;;;6.18;;
30149;SDS011;16962;48.646;9.026;2023-06-22T08:11:01;10.48;;;5.85;;
30149;SDS011;16962;48.646;9.026;2023-06-22T08:13:52;12.63;;;6.25;;
30149;SDS011;16962;48.646;9.026;2023-06-22T08:16:41;17.45;;;6.50;;
30149;SDS011;16962;48.646;9.026;2023-06-22T08:19:31;9.93;;;5.32;;
30149;SDS011;16962;48.646;9.026;2023-06-22T08:22:18;13.43;;;5.72;;
30149;SDS011;16962;48.646;9.026;2023-06-22T08:25:20;11.85;;;5.53;;
30149;SDS011;16962;48.646;9.026;2023-06-22T08:28:09;10.07;;;6.07;;
30149;SDS011;16962;48.646;9.026;2023-06-22T08:30:59;12.65;;;5.70;;
30149;SDS011;16962;48.646;9.026;2023-06-22T08:33:47;11.70;;;6.07;;
30149;SDS011;16962;48.646;9.026;2023-06-22T08:36:38;11.57;;;5.85;;
30149;SDS011;16962;48.646;9.026;2023-06-22T08:39:31;10.27;;;5.57;;
30149;SDS011;16962;48.646;9.026;2023-06-22T08:42:21;10.18;;;6.13;;
30149;SDS011;16962;48.646;9.026;2023-06-22T08:45:12;10.90;;;6.10;;
30149;SDS011;16962;48.646;9.026;2023-06-22T08:48:03;12.32;;;6.00;;
30149;SDS011;16962;48.646;9.026;2023-06-22T08:50:51;13.00;;;6.65;;
30149;SDS011;16962;48.646;9.026;2023-06-22T08:53:38;13.35;;;6.32;;
30149;SDS011;16962;48.646;9.026;2023-06-22T08:56:25;16.15;;;6.07;;
30149;SDS011;16962;48.646;9.026;2023-06-22T08:59:13;11.10;;;5.57;;
30149;SDS011;16962;48.646;9.026;2023-06-22T09:02:00;10.25;;;6.28;;
30149;SDS011;16962;48.646;9.026;2023-06-22T09:04:47;11.68;;;5.75;;
30149;SDS011;16962;48.646;9.026;2023-06-22T09:07:36;12.18;;;5.40;;
30149;SDS011;16962;48.646;9.026;2023-06-22T09:10:24;9.90;;;5.80;;
30149;SDS011;16962;48.646;9.026;2023-06-22T09:13:14;11.55;;;5.60;;
30149;SDS011;16962;48.646;9.026;2023-06-22T09:16:01;16.08;;;6.25;;
30149;SDS011;16962;48.646;9.026;2023-06-22T09:18:51;12.13;;;6.43;;
30149;SDS011;16962;48.646;9.026;2023-06-22T09:21:39;13.00;;;6.72;;
30149;SDS011;16962;48.646;9.026;2023-06-22T09:24:27;13.35;;;6.05;;
30149;SDS011;16962;48.646;9.026;2023-06-22T09:27:14;12.45;;;6.38;;
30149;SDS011;16962;48.646;9.026;2023-06-22T09:30:02;12.45;;;5.85;;
30149;SDS011;16962;48.646;9.026;2023-06-22T09:32:50;12.90;;;5.53;;
30149;SDS011;16962;48.646;9.026;2023-06-22T09:35:40;11.50;;;5.47;;
30149;SDS011;16962;48.646;9.026;2023-06-22T09:38:28;16.27;;;6.30;;
30149;SDS011;16962;48.646;9.026;2023-06-22T09:41:15;10.10;;;5.68;;
30149;SDS011;16962;48.646;9.026;2023-06-22T09:44:02;10.30;;;5.85;;
30149;SDS011;16962;48.646;9.026;2023-06-22T09:46:52;14.15;;;6.10;;
30149;SDS011;16962;48.646;9.026;2023-06-22T09:49:42;11.90;;;5.43;;
30149;SDS011;16962;48.646;9.026;2023-06-22T09:52:34;11.27;;;5.38;;
30149;SDS011;16962;48.646;9.026;2023-06-22T09:55:34;14.82;;;5.70;;
30149;SDS011;16962;48.646;9.026;2023-06-22T09:58:21;8.75;;;5.75;;
30149;SDS011;16962;48.646;9.026;2023-06-22T10:01:09;12.20;;;5.65;;
30149;SDS011;16962;48.646;9.026;2023-06-22T10:03:57;10.93;;;6.07;;
30149;SDS011;16962;48.646;9.026;2023-06-22T10:06:45;14.50;;;5.57;;
30149;SDS011;16962;48.646;9.026;2023-06-22T10:09:32;9.63;;;5.38;;
30149;SDS011;16962;48.646;9.026;2023-06-22T10:12:20;16.35;;;5.97;;
30149;SDS011;16962;48.646;9.026;2023-06-22T10:15:07;10.93;;;5.80;;
30149;SDS011;16962;48.646;9.026;2023-06-22T10:18:03;14.60;;;5.70;;
30149;SDS011;16962;48.646;9.026;2023-06-22T10:20:51;12.80;;;5.20;;
30149;SDS011;16962;48.646;9.026;2023-06-22T10:23:41;11.55;;;5.38;;
30149;SDS011;16962;48.646;9.026;2023-06-22T10:26:36;12.85;;;5.38;;
30149;SDS011;16962;48.646;9.026;2023-06-22T10:29:23;8.52;;;4.82;;
30149;SDS011;16962;48.646;9.026;2023-06-22T10:32:11;11.98;;;5.25;;
30149;SDS011;16962;48.646;9.026;2023-06-22T10:34:58;11.55;;;5.38;;
30149;SDS011;16962;48.646;9.026;2023-06-22T10:37:46;11.30;;;5.47;;
30149;SDS011;16962;48.646;9.026;2023-06-22T10:40:33;12.60;;;4.90;;
30149;SDS011;16962;48.646;9.026;2023-06-22T10:43:21;8.13;;;4.93;;
30149;SDS011;16962;48.646;9.026;2023-06-22T10:46:16;10.32;;;5.43;;
30149;SDS011;16962;48.646;9.026;2023-06-22T10:49:03;11.85;;;5.40;;
30149;SDS011;16962;48.646;9.026;2023-06-22T10:51:50;14.38;;;5.72;;
30149;SDS011;16962;48.646;9.026;2023-06-22T10:54:38;14.43;;;6.00;;
30149;SDS011;16962;48.646;9.026;2023-06-22T10:57:27;12.20;;;5.85;;
30149;SDS011;16962;48.646;9.026;2023-06-22T11:00:15;11.02;;;5.13;;
30149;SDS011;16962;48.646;9.026;2023-06-22T11:03:03;14.70;;;6.30;;
30149;SDS011;16962;48.646;9.026;2023-06-22T11:05:50;17.38;;;5.75;;
30149;SDS011;16962;48.646;9.026;2023-06-22T11:08:38;11.80;;;5.63;;
30149;SDS011;16962;48.646;9.026;2023-06-22T11:11:29;10.88;;;5.65;;
30149;SDS011;16962;48.646;9.026;2023-06-22T11:14:17;12.68;;;6.13;;
30149;SDS011;16962;48.646;9.026;2023-06-22T11:17:04;17.70;;;5.88;;
30149;SDS011;16962;48.646;9.026;2023-06-22T11:19:52;12.25;;;6.22;;
30149;SDS011;16962;48.646;9.026;2023-06-22T11:22:42;14.00;;;5.72;;
30149;SDS011;16962;48.646;9.026;2023-06-22T11:25:29;13.27;;;5.60;;
30149;SDS011;16962;48.646;9.026;2023-06-22T11:28:17;10.90;;;5.53;;
30149;SDS011;16962;48.646;9.026;2023-06-22T11:31:06;13.15;;;5.75;;
30149;SDS011;16962;48.646;9.026;2023-06-22T11:34:11;11.70;;;6.00;;
30149;SDS011;16962;48.646;9.026;2023-06-22T11:36:59;10.50;;;5.93;;
30149;SDS011;16962;48.646;9.026;2023-06-22T11:39:49;11.23;;;6.63;;
30149;SDS011;16962;48.646;9.026;2023-06-22T11:42:52;10.55;;;5.95;;
30149;SDS011;16962;48.646;9.026;2023-06-22T11:45:41;16.10;;;6.53;;
30149;SDS011;16962;48.646;9.026;2023-06-22T11:48:29;15.48;;;6.95;;
30149;SDS011;16962;48.646;9.026;2023-06-22T11:51:27;10.85;;;5.90;;
30149;SDS011;16962;48.646;9.026;2023-06-22T11:54:29;9.77;;;5.95;;
30149;SDS011;16962;48.646;9.026;2023-06-22T12:00:59;12.45;;;6.07;;
30149;SDS011;16962;48.646;9.026;2023-06-22T12:03:47;16.02;;;6.30;;
30149;SDS011;16962;48.646;9.026;2023-06-22T12:06:35;12.68;;;6.00;;
30149;SDS011;16962;48.646;9.026;2023-06-22T12:09:28;18.40;;;6.78;;
30149;SDS011;16962;48.646;9.026;2023-06-22T12:12:15;12.88;;;6.75;;
30149;SDS011;16962;48.646;9.026;2023-06-22T12:15:03;9.93;;;5.55;;
30149;SDS011;16962;48.646;9.026;2023-06-22T12:17:50;14.07;;;6.80;;
30149;SDS011;16962;48.646;9.026;2023-06-22T12:20:38;11.73;;;6.43;;
30149;SDS011;16962;48.646;9.026;2023-06-22T12:23:27;13.88;;;6.88;;
30149;SDS011;16962;48.646;9.026;2023-06-22T12:26:20;17.73;;;8.15;;
30149;SDS011;16962;48.646;9.026;2023-06-22T12:29:08;19.77;;;8.20;;
30149;SDS011;16962;48.646;9.026;2023-06-22T12:32:14;12.98;;;7.22;;
30149;SDS011;16962;48.646;9.026;2023-06-22T12:35:11;16.08;;;6.93;;
30149;SDS011;16962;48.646;9.026;2023-06-22T12:38:01;15.05;;;7.00;;
30149;SDS011;16962;48.646;9.026;2023-06-22T12:40:51;10.20;;;6.07;;
30149;SDS011;16962;48.646;9.026;2023-06-22T12:43:38;15.32;;;6.88;;
30149;SDS011;16962;48.646;9.026;2023-06-22T12:46:29;15.88;;;7.40;;
30149;SDS011;16962;48.646;9.026;2023-06-22T12:49:23;17.75;;;7.30;;
30149;SDS011;16962;48.646;9.026;2023-06-22T12:53:00;16.40;;;5.93;;
30149;SDS011;16962;48.646;9.026;2023-06-22T12:56:09;12.95;;;6.63;;
30149;SDS011;16962;48.646;9.026;2023-06-22T12:59:24;12.75;;;6.60;;
30149;SDS011;16962;48.646;9.026;2023-06-22T14:00:06;13.90;;;5.90;;
30149;SDS011;16962;48.646;9.026;2023-06-22T14:11:30;13.50;;;5.68;;
30149;SDS011;16962;48.646;9.026;2023-06-22T14:14:39;17.20;;;5.93;;
30149;SDS011;16962;48.646;9.026;2023-06-22T14:17:49;12.93;;;5.47;;
30149;SDS011;16962;48.646;9.026;2023-06-22T14:20:37;17.85;;;5.95;;
30149;SDS011;16962;48.646;9.026;2023-06-22T14:23:26;12.65;;;5.85;;
30149;SDS011;16962;48.646;9.026;2023-06-22T14:26:22;13.43;;;4.95;;
30149;SDS011;16962;48.646;9.026;2023-06-22T14:29:12;15.75;;;5.07;;
30149;SDS011;16962;48.646;9.026;2023-06-22T14:31:59;13.90;;;4.95;;
30149;SDS011;16962;48.646;9.026;2023-06-22T14:35:19;12.50;;;4.22;;
30149;SDS011;16962;48.646;9.026;2023-06-22T14:38:40;18.63;;;4.18;;
30149;SDS011;16962;48.646;9.026;2023-06-22T14:41:30;12.00;;;3.83;;
30149;SDS011;16962;48.646;9.026;2023-06-22T14:44:19;13.55;;;3.78;;
30149;SDS011;16962;48.646;9.026;2023-06-22T14:47:07;15.95;;;3.88;;
30149;SDS011;16962;48.646;9.026;2023-06-22T14:49:54;13.05;;;3.72;;
30149;SDS011;16962;48.646;9.026;2023-06-22T14:52:42;15.43;;;3.72;;
30149;SDS011;16962;48.646;9.026;2023-06-22T14:55:30;13.57;;;3.53;;
30149;SDS011;16962;48.646;9.026;2023-06-22T14:58:17;11.73;;;3.83;;
30149;SDS011;16962;48.646;9.026;2023-06-22T15:01:05;14.85;;;3.85;;
30149;SDS011;16962;48.646;9.026;2023-06-22T15:03:57;11.77;;;3.50;;
30149;SDS011;16962;48.646;9.026;2023-06-22T15:06:50;17.23;;;4.13;;
30149;SDS011;16962;48.646;9.026;2023-06-22T15:13:00;11.00;;;4.13;;
30149;SDS011;16962;48.646;9.026;2023-06-22T15:16:08;12.27;;;4.35;;
30149;SDS011;16962;48.646;9.026;2023-06-22T15:18:56;14.40;;;4.03;;
30149;SDS011;16962;48.646;9.026;2023-06-22T15:21:45;10.85;;;3.47;;
30149;SDS011;16962;48.646;9.026;2023-06-22T15:24:32;20.42;;;3.63;;
30149;SDS011;16962;48.646;9.026;2023-06-22T15:27:22;9.13;;;3.72;;
30149;SDS011;16962;48.646;9.026;2023-06-22T15:33:46;13.55;;;3.63;;
30149;SDS011;16962;48.646;9.026;2023-06-22T15:36:43;9.57;;;3.63;;
30149;SDS011;16962;48.646;9.026;2023-06-22T15:39:30;15.27;;;3.80;;
30149;SDS011;16962;48.646;9.026;2023-06-22T15:42:20;15.40;;;4.68;;
30149;SDS011;16962;48.646;9.026;2023-06-22T15:45:07;11.98;;;4.25;;
30149;SDS011;16962;48.646;9.026;2023-06-22T15:47:55;11.60;;;3.72;;
30149;SDS011;16962;48.646;9.026;2023-06-22T15:50:43;11.20;;;3.65;;
30149;SDS011;16962;48.646;9.026;2023-06-22T15:53:34;12.47;;;3.57;;
30149;SDS011;16962;48.646;9.026;2023-06-22T15:56:28;16.17;;;4.32;;
30149;SDS011;16962;48.646;9.026;2023-06-22T15:59:20;16.40;;;4.32;;
30149;SDS011;16962;48.646;9.026;2023-06-22T16:02:09;20.05;;;4.28;;
30149;SDS011;16962;48.646;9.026;2023-06-22T16:04:58;12.63;;;4.05;;
30149;SDS011;16962;48.646;9.026;2023-06-22T16:07:47;11.57;;;3.72;;
30149;SDS011;16962;48.646;9.026;2023-06-22T16:10:36;11.82;;;3.70;;
30149;SDS011;16962;48.646;9.026;2023-06-22T16:13:25;11.45;;;4.00;;
30149;SDS011;16962;48.646;9.026;2023-06-22T16:16:13;11.52;;;3.85;;
30149;SDS011;16962;48.646;9.026;2023-06-22T16:19:03;10.60;;;4.20;;
30149;SDS011;16962;48.646;9.026;2023-06-22T16:21:51;9.18;;;3.80;;
30149;SDS011;16962;48.646;9.026;2023-06-22T16:24:38;10.68;;;3.78;;
30149;SDS011;16962;48.646;9.026;2023-06-22T16:27:25;13.43;;;4.40;;
30149;SDS011;16962;48.646;9.026;2023-06-22T16:30:18;9.15;;;3.65;;
30149;SDS011;16962;48.646;9.026;2023-06-22T16:33:06;11.73;;;3.70;;
30149;SDS011;16962;48.646;9.026;2023-06-22T16:35:53;9.55;;;3.80;;
30149;SDS011;16962;48.646;9.026;2023-06-22T16:38:41;11.02;;;3.72;;
30149;SDS011;16962;48.646;9.026;2023-06-22T16:41:34;12.00;;;4.25;;
30149;SDS011;16962;48.646;9.026;2023-06-22T16:44:21;9.30;;;3.80;;
30149;SDS011;16962;48.646;9.026;2023-06-22T16:47:09;10.50;;;3.30;;
30149;SDS011;16962;48.646;9.026;2023-06-22T16:49:59;9.60;;;3.15;;
30149;SDS011;16962;48.646;9.026;2023-06-22T16:52:47;10.35;;;3.60;;
30149;SDS011;16962;48.646;9.026;2023-06-22T16:55:49;13.25;;;4.30;;
30149;SDS011;16962;48.646;9.026;2023-06-22T16:58:39;7.78;;;3.22;;
30149;SDS011;16962;48.646;9.026;2023-06-22T17:01:37;11.10;;;3.40;;
30149;SDS011;16962;48.646;9.026;2023-06-22T17:04:42;9.70;;;3.47;;
30149;SDS011;16962;48.646;9.026;2023-06-22T17:07:34;11.05;;;3.17;;
30149;SDS011;16962;48.646;9.026;2023-06-22T17:10:23;12.80;;;3.53;;
30149;SDS011;16962;48.646;9.026;2023-06-22T17:13:16;10.98;;;3.22;;
30149;SDS011;16962;48.646;9.026;2023-06-22T17:16:05;10.43;;;3.80;;
30149;SDS011;16962;48.646;9.026;2023-06-22T17:18:58;11.77;;;3.70;;
30149;SDS011;16962;48.646;9.026;2023-06-22T17:21:55;10.52;;;3.03;;
30149;SDS011;16962;48.646;9.026;2023-06-22T17:24:42;10.40;;;3.75;;
30149;SDS011;16962;48.646;9.026;2023-06-22T17:27:34;9.73;;;3.10;;
30149;SDS011;16962;48.646;9.026;2023-06-22T17:30:22;10.77;;;3.08;;
30149;SDS011;16962;48.646;9.026;2023-06-22T17:33:14;9.57;;;3.08;;
30149;SDS011;16962;48.646;9.026;2023-06-22T17:36:13;16.10;;;3.60;;
30149;SDS011;16962;48.646;9.026;2023-06-22T17:39:01;19.63;;;3.03;;
30149;SDS011;16962;48.646;9.026;2023-06-22T17:41:53;14.45;;;2.85;;
30149;SDS011;16962;48.646;9.026;2023-06-22T17:44:44;9.85;;;3.05;;
30149;SDS011;16962;48.646;9.026;2023-06-22T17:47:54;9.32;;;2.45;;
30149;SDS011;16962;48.646;9.026;2023-06-22T17:51:21;9.77;;;2.75;;
30149;SDS011;16962;48.646;9.026;2023-06-22T17:54:12;11.27;;;2.83;;
30149;SDS011;16962;48.646;9.026;2023-06-22T17:57:35;6.72;;;2.60;;
30149;SDS011;16962;48.646;9.026;2023-06-22T18:00:27;11.38;;;2.50;;
30149;SDS011;16962;48.646;9.026;2023-06-22T18:03:22;12.35;;;2.60;;
30149;SDS011;16962;48.646;9.026;2023-06-22T18:06:27;8.88;;;2.40;;
30149;SDS011;16962;48.646;9.026;2023-06-22T18:09:18;9.50;;;2.83;;
30149;SDS011;16962;48.646;9.026;2023-06-22T18:12:09;11.52;;;2.92;;
30149;SDS011;16962;48.646;9.026;2023-06-22T18:15:03;12.70;;;2.97;;
30149;SDS011;16962;48.646;9.026;2023-06-22T18:17:55;11.27;;;3.15;;
30149;SDS011;16962;48.646;9.026;2023-06-22T18:20:48;18.52;;;3.33;;
30149;SDS011;16962;48.646;9.026;2023-06-22T18:23:37;10.43;;;3.85;;
30149;SDS011;16962;48.646;9.026;2023-06-22T18:32:14;10.90;;;3.67;;
30149;SDS011;16962;48.646;9.026;2023-06-22T18:35:04;10.18;;;3.45;;
30149;SDS011;16962;48.646;9.026;2023-06-22T18:37:54;12.00;;;3.75;;
30149;SDS011;16962;48.646;9.026;2023-06-22T18:40:51;13.95;;;3.67;;